Time;durP1;ratioP1;P1;durP2;ratioP2;P2;SDS_P1;SDS_P2;PMS_P1;PMS_P2;Temp;Humidity;BMP_temperature;BMP_pressure;BME280_temperature;BME280_humidity;BME280_pressure;Samples;Min_cycle;Max_cycle;Signal;HPM_P1;HPM_P2
2024/04/15 00:00:53;;;;;;;0.10;0.10;;;;;;;;;;2223833;26;20033;-61
2024/04/15 00:02:12;;;;;;;0.20;0.10;;;;;;;;;;2221840;26;20011;-62
2024/04/15 00:03:31;;;;;;;0.15;0.15;;;;;;;;;;2221734;26;20154;-62
2024/04/15 00:04:51;;;;;;;0.10;0.10;;;;;;;;;;2222559;26;20012;-61
2024/04/15 00:06:10;;;;;;;1.60;0.30;;;;;;;;;;2221082;26;20048;-61
2024/04/15 00:07:29;;;;;;;0.10;0.10;;;;;;;;;;2227686;26;20011;-61
2024/04/15 00:08:48;;;;;;;0.57;0.10;;;;;;;;;;2217483;26;20000;-62
2024/04/15 00:10:07;;;;;;;0.20;0.20;;;;;;;;;;2221631;26;20374;-62
2024/04/15 00:11:27;;;;;;;4.22;0.47;;;;;;;;;;2220895;26;21209;-61
2024/04/15 00:12:48;;;;;;;0.20;0.20;;;;;;;;;;2223189;26;20005;-61
2024/04/15 00:14:07;;;;;;;1.27;0.20;;;;;;;;;;2222379;26;20016;-61
2024/04/15 00:15:26;;;;;;;0.10;0.10;;;;;;;;;;2218057;26;20001;-62
2024/04/15 00:16:45;;;;;;;0.10;0.10;;;;;;;;;;2219219;26;20031;-62
2024/04/15 00:18:04;;;;;;;0.10;0.10;;;;;;;;;;2220327;26;20008;-61
2024/04/15 00:19:26;;;;;;;0.10;0.10;;;;;;;;;;2223700;26;20004;-61
2024/04/15 00:20:45;;;;;;;0.55;0.03;;;;;;;;;;2221529;26;20015;-62
2024/04/15 00:22:04;;;;;;;0.15;0.15;;;;;;;;;;2220003;26;20008;-60
2024/04/15 00:23:23;;;;;;;0.13;0.13;;;;;;;;;;2220926;26;20511;-61
2024/04/15 00:24:42;;;;;;;0.10;0.10;;;;;;;;;;2222237;26;20733;-60
2024/04/15 00:26:01;;;;;;;0.57;0.10;;;;;;;;;;2222647;26;20008;-65
2024/04/15 00:27:20;;;;;;;0.38;0.10;;;;;;;;;;2220615;26;20003;-62
2024/04/15 00:28:39;;;;;;;0.57;0.10;;;;;;;;;;2222891;26;20001;-61
2024/04/15 00:29:58;;;;;;;0.10;0.10;;;;;;;;;;2221098;26;20065;-62
2024/04/15 00:31:17;;;;;;;0.20;0.20;;;;;;;;;;2222042;26;20008;-61
2024/04/15 00:32:36;;;;;;;0.17;0.10;;;;;;;;;;2222081;26;20000;-63
2024/04/15 00:33:56;;;;;;;0.17;0.17;;;;;;;;;;2224111;26;20465;-62
2024/04/15 00:35:15;;;;;;;0.10;0.10;;;;;;;;;;2223035;26;20016;-62
2024/04/15 00:36:35;;;;;;;0.47;0.20;;;;;;;;;;2221238;26;20003;-61
2024/04/15 00:37:54;;;;;;;0.10;0.10;;;;;;;;;;2222204;26;20003;-61
2024/04/15 00:39:13;;;;;;;0.10;0.10;;;;;;;;;;2222330;26;20007;-62
2024/04/15 00:40:32;;;;;;;0.10;0.10;;;;;;;;;;2221666;26;20077;-61
2024/04/15 00:41:51;;;;;;;1.65;0.20;;;;;;;;;;2220695;26;20722;-62
2024/04/15 00:43:11;;;;;;;0.10;0.10;;;;;;;;;;2221581;26;19996;-61
2024/04/15 00:44:31;;;;;;;0.10;0.10;;;;;;;;;;2225451;26;20008;-62
2024/04/15 00:45:50;;;;;;;0.22;0.22;;;;;;;;;;2217362;26;19999;-62
2024/04/15 00:47:09;;;;;;;0.20;0.20;;;;;;;;;;2222143;26;23317;-62
2024/04/15 00:48:28;;;;;;;1.35;0.10;;;;;;;;;;2222186;26;20012;-63
2024/04/15 00:49:47;;;;;;;0.20;0.20;;;;;;;;;;2220659;26;20011;-62
2024/04/15 00:51:06;;;;;;;0.20;0.20;;;;;;;;;;2221615;26;20369;-61
2024/04/15 00:52:25;;;;;;;0.20;0.20;;;;;;;;;;2220027;26;20012;-61
2024/04/15 00:53:45;;;;;;;0.17;0.17;;;;;;;;;;2222009;26;20007;-61
2024/04/15 00:55:05;;;;;;;0.10;0.10;;;;;;;;;;2222085;26;20701;-60
2024/04/15 00:56:24;;;;;;;0.20;0.20;;;;;;;;;;2221065;26;20078;-61
2024/04/15 00:57:43;;;;;;;1.08;0.20;;;;;;;;;;2222081;26;20012;-60
2024/04/15 00:59:03;;;;;;;0.20;0.20;;;;;;;;;;2221159;26;20008;-63
2024/04/15 01:00:22;;;;;;;0.45;0.20;;;;;;;;;;2221206;26;20624;-61
2024/04/15 01:01:42;;;;;;;0.10;0.10;;;;;;;;;;2221540;26;20390;-62
2024/04/15 01:03:02;;;;;;;1.08;0.20;;;;;;;;;;2218894;26;20436;-61
2024/04/15 01:04:21;;;;;;;0.75;0.20;;;;;;;;;;2220498;26;20020;-62
2024/04/15 01:05:40;;;;;;;0.25;0.25;;;;;;;;;;2220052;26;20118;-62
2024/04/15 01:06:59;;;;;;;0.13;0.13;;;;;;;;;;2222063;26;20441;-62
2024/04/15 01:08:18;;;;;;;0.17;0.17;;;;;;;;;;2225420;26;20008;-60
2024/04/15 01:09:37;;;;;;;0.10;0.10;;;;;;;;;;2225980;26;21655;-60
2024/04/15 01:10:56;;;;;;;0.17;0.17;;;;;;;;;;2221167;26;20018;-60
2024/04/15 01:12:15;;;;;;;0.20;0.20;;;;;;;;;;2220477;26;20871;-61
2024/04/15 01:13:34;;;;;;;0.20;0.20;;;;;;;;;;2225866;26;20008;-60
2024/04/15 01:14:53;;;;;;;0.20;0.20;;;;;;;;;;2220271;26;20016;-61
2024/04/15 01:16:12;;;;;;;0.10;0.10;;;;;;;;;;2223650;26;20003;-60
2024/04/15 01:17:31;;;;;;;0.20;0.20;;;;;;;;;;2219643;26;20023;-61
2024/04/15 01:18:50;;;;;;;0.68;0.10;;;;;;;;;;2221295;26;20015;-60
2024/04/15 01:20:09;;;;;;;0.20;0.20;;;;;;;;;;2218054;26;20004;-61
2024/04/15 01:21:28;;;;;;;3.65;0.30;;;;;;;;;;2220253;26;20360;-61
2024/04/15 01:23:17;;;;;;;0.10;0.10;;;;;;;;;;2217018;26;20015;-61
2024/04/15 01:24:36;;;;;;;0.10;0.10;;;;;;;;;;2219337;26;20447;-60
2024/04/15 01:25:55;;;;;;;0.20;0.20;;;;;;;;;;2217770;26;20019;-64
2024/04/15 01:27:15;;;;;;;0.60;0.20;;;;;;;;;;2219955;26;20753;-61
2024/04/15 01:28:34;;;;;;;0.20;0.20;;;;;;;;;;2221161;26;20035;-60
2024/04/15 01:29:53;;;;;;;0.10;0.10;;;;;;;;;;2220095;26;20015;-61
2024/04/15 01:31:12;;;;;;;0.10;0.10;;;;;;;;;;2220239;26;20674;-61
2024/04/15 01:32:31;;;;;;;0.55;0.20;;;;;;;;;;2222062;26;20023;-61
2024/04/15 01:33:50;;;;;;;0.28;0.28;;;;;;;;;;2221930;26;20039;-60
2024/04/15 01:35:09;;;;;;;0.20;0.13;;;;;;;;;;2224977;26;20027;-63
2024/04/15 01:36:28;;;;;;;1.35;0.10;;;;;;;;;;2221273;26;20018;-61
2024/04/15 01:37:48;;;;;;;0.10;0.10;;;;;;;;;;2223726;26;20004;-60
2024/04/15 01:39:07;;;;;;;0.17;0.17;;;;;;;;;;2222648;26;20027;-60
2024/04/15 01:40:26;;;;;;;0.25;0.22;;;;;;;;;;2219788;26;20436;-60
2024/04/15 01:41:45;;;;;;;0.40;0.20;;;;;;;;;;2219054;26;20004;-61
2024/04/15 01:43:04;;;;;;;0.55;0.20;;;;;;;;;;2222654;26;20011;-60
2024/04/15 01:44:24;;;;;;;0.25;0.10;;;;;;;;;;2222283;26;20011;-61
2024/04/15 01:45:42;;;;;;;0.38;0.10;;;;;;;;;;2221184;26;20070;-61
2024/04/15 01:47:01;;;;;;;0.10;0.10;;;;;;;;;;2214437;26;20496;-60
2024/04/15 01:48:20;;;;;;;0.10;0.10;;;;;;;;;;2218120;26;20004;-61
2024/04/15 01:49:39;;;;;;;0.15;0.15;;;;;;;;;;2219568;26;20008;-61
2024/04/15 01:50:58;;;;;;;0.20;0.20;;;;;;;;;;2219449;26;20467;-63
2024/04/15 01:52:17;;;;;;;0.22;0.13;;;;;;;;;;2217665;26;20926;-61
2024/04/15 01:53:36;;;;;;;0.10;0.10;;;;;;;;;;2217292;26;20008;-60
2024/04/15 01:54:55;;;;;;;0.10;0.10;;;;;;;;;;2216765;26;20012;-61
2024/04/15 01:56:14;;;;;;;0.22;0.20;;;;;;;;;;2219470;26;20004;-61
2024/04/15 01:57:33;;;;;;;0.10;0.10;;;;;;;;;;2235544;26;20003;-60
2024/04/15 01:58:52;;;;;;;0.20;0.20;;;;;;;;;;2227733;26;20012;-61
2024/04/15 02:00:12;;;;;;;0.20;0.20;;;;;;;;;;2217908;26;20016;-60
2024/04/15 02:01:31;;;;;;;0.22;0.20;;;;;;;;;;2218493;26;20035;-61
2024/04/15 02:02:50;;;;;;;0.55;0.10;;;;;;;;;;2221830;26;20007;-61
2024/04/15 02:04:09;;;;;;;0.40;0.20;;;;;;;;;;2220486;26;20004;-61
2024/04/15 02:05:28;;;;;;;0.35;0.10;;;;;;;;;;2220696;26;20491;-61
2024/04/15 02:06:47;;;;;;;0.10;0.10;;;;;;;;;;2218342;26;20024;-61
2024/04/15 02:08:06;;;;;;;0.10;0.10;;;;;;;;;;2221935;26;20500;-60
2024/04/15 02:09:25;;;;;;;0.10;0.10;;;;;;;;;;2225160;26;20003;-61
2024/04/15 02:10:44;;;;;;;0.60;0.10;;;;;;;;;;2220555;26;20008;-61
2024/04/15 02:12:04;;;;;;;0.10;0.10;;;;;;;;;;2223143;26;20097;-61
2024/04/15 02:13:22;;;;;;;0.30;0.20;;;;;;;;;;2221478;26;20008;-60
2024/04/15 02:14:41;;;;;;;0.22;0.10;;;;;;;;;;2221692;26;19999;-59
2024/04/15 02:16:00;;;;;;;2.05;0.10;;;;;;;;;;2219888;26;20007;-60
2024/04/15 02:17:19;;;;;;;0.10;0.10;;;;;;;;;;2221442;26;20023;-60
2024/04/15 02:18:38;;;;;;;0.57;0.10;;;;;;;;;;2220473;26;20020;-59
2024/04/15 02:19:57;;;;;;;0.30;0.20;;;;;;;;;;2222035;26;20004;-60
2024/04/15 02:21:16;;;;;;;0.17;0.10;;;;;;;;;;2233219;26;20007;-59
2024/04/15 02:22:35;;;;;;;0.13;0.13;;;;;;;;;;2224543;26;20140;-60
2024/04/15 02:23:54;;;;;;;0.43;0.10;;;;;;;;;;2223741;26;20007;-60
2024/04/15 02:25:13;;;;;;;0.20;0.10;;;;;;;;;;2222384;26;20008;-61
2024/04/15 02:26:32;;;;;;;0.22;0.20;;;;;;;;;;2223525;26;20080;-60
2024/04/15 02:27:51;;;;;;;0.10;0.10;;;;;;;;;;2217162;26;20015;-59
2024/04/15 02:29:10;;;;;;;0.30;0.13;;;;;;;;;;2223102;26;20003;-59
2024/04/15 02:30:29;;;;;;;0.30;0.20;;;;;;;;;;2221870;26;20016;-59
2024/04/15 02:31:48;;;;;;;0.22;0.22;;;;;;;;;;2221075;26;20007;-60
2024/04/15 02:33:07;;;;;;;0.10;0.10;;;;;;;;;;2220666;26;20598;-59
2024/04/15 02:34:27;;;;;;;1.75;0.22;;;;;;;;;;2220451;26;20706;-60
2024/04/15 02:35:46;;;;;;;1.35;0.10;;;;;;;;;;2221580;26;20011;-60
2024/04/15 02:37:05;;;;;;;0.15;0.15;;;;;;;;;;2221468;26;20075;-60
2024/04/15 02:38:24;;;;;;;0.30;0.20;;;;;;;;;;2220660;26;19997;-59
2024/04/15 02:39:43;;;;;;;0.30;0.20;;;;;;;;;;2220045;26;20004;-61
2024/04/15 02:41:02;;;;;;;0.32;0.20;;;;;;;;;;2220426;26;20011;-60
2024/04/15 02:42:21;;;;;;;1.45;0.20;;;;;;;;;;2218749;26;19996;-59
2024/04/15 02:43:39;;;;;;;0.20;0.20;;;;;;;;;;2217057;26;20003;-59
2024/04/15 02:44:59;;;;;;;1.35;0.20;;;;;;;;;;2219134;26;21454;-60
2024/04/15 02:46:18;;;;;;;0.10;0.10;;;;;;;;;;2218596;26;20000;-59
2024/04/15 02:47:37;;;;;;;0.10;0.10;;;;;;;;;;2217734;26;20000;-61
2024/04/15 02:48:56;;;;;;;0.10;0.10;;;;;;;;;;2219112;26;20008;-60
2024/04/15 02:50:15;;;;;;;0.20;0.20;;;;;;;;;;2215676;26;20008;-60
2024/04/15 02:51:34;;;;;;;0.10;0.10;;;;;;;;;;2217345;26;20036;-59
2024/04/15 02:52:53;;;;;;;0.10;0.10;;;;;;;;;;2214123;26;20553;-59
2024/04/15 02:54:12;;;;;;;0.10;0.10;;;;;;;;;;2218592;26;20011;-60
2024/04/15 02:55:31;;;;;;;0.13;0.13;;;;;;;;;;2217885;26;20008;-59
2024/04/15 02:56:50;;;;;;;0.60;0.20;;;;;;;;;;2216520;26;20361;-60
2024/04/15 02:58:09;;;;;;;0.20;0.20;;;;;;;;;;2216398;26;20007;-60
2024/04/15 02:59:28;;;;;;;0.00;0.00;;;;;;;;;;2220297;26;20642;-60
2024/04/15 03:00:47;;;;;;;0.15;0.15;;;;;;;;;;2219068;26;20003;-59
2024/04/15 03:02:06;;;;;;;0.17;0.17;;;;;;;;;;2218232;26;20008;-59
2024/04/15 03:03:26;;;;;;;0.20;0.20;;;;;;;;;;2218789;26;20414;-60
2024/04/15 03:04:45;;;;;;;1.33;0.20;;;;;;;;;;2218705;26;20465;-60
2024/04/15 03:06:04;;;;;;;0.20;0.20;;;;;;;;;;2216163;26;20015;-60
2024/04/15 03:07:22;;;;;;;0.20;0.20;;;;;;;;;;2218550;26;20000;-61
2024/04/15 03:08:42;;;;;;;0.40;0.20;;;;;;;;;;2220869;26;20734;-60
2024/04/15 03:10:01;;;;;;;1.45;0.30;;;;;;;;;;2220051;26;20453;-60
2024/04/15 03:11:20;;;;;;;0.20;0.20;;;;;;;;;;2219058;26;20407;-59
2024/04/15 03:12:39;;;;;;;0.15;0.15;;;;;;;;;;2216606;26;20858;-60
2024/04/15 03:13:58;;;;;;;0.20;0.20;;;;;;;;;;2219988;26;20004;-60
2024/04/15 03:15:17;;;;;;;0.10;0.10;;;;;;;;;;2217894;26;20008;-60
2024/04/15 03:16:36;;;;;;;0.30;0.10;;;;;;;;;;2218039;26;20009;-60
2024/04/15 03:17:55;;;;;;;0.55;0.10;;;;;;;;;;2219354;26;20032;-62
2024/04/15 03:19:17;;;;;;;0.15;0.15;;;;;;;;;;2219723;26;20015;-59
2024/04/15 03:20:36;;;;;;;0.10;0.10;;;;;;;;;;2219108;26;20015;-58
2024/04/15 03:21:55;;;;;;;0.20;0.20;;;;;;;;;;2217335;26;20240;-64
2024/04/15 03:23:14;;;;;;;1.77;0.10;;;;;;;;;;2217486;26;20004;-60
2024/04/15 03:24:33;;;;;;;0.10;0.10;;;;;;;;;;2222667;26;20015;-60
2024/04/15 03:25:52;;;;;;;0.30;0.10;;;;;;;;;;2220966;26;23443;-60
2024/04/15 03:27:10;;;;;;;0.10;0.10;;;;;;;;;;2217461;26;20040;-60
2024/04/15 03:28:30;;;;;;;0.22;0.22;;;;;;;;;;2219239;26;20058;-59
2024/04/15 03:29:50;;;;;;;0.10;0.10;;;;;;;;;;2216573;26;20086;-59
2024/04/15 03:31:09;;;;;;;0.10;0.10;;;;;;;;;;2219687;26;20746;-59
2024/04/15 03:32:28;;;;;;;0.10;0.10;;;;;;;;;;2214482;26;20411;-61
2024/04/15 03:33:47;;;;;;;0.45;0.20;;;;;;;;;;2218168;26;20462;-60
2024/04/15 03:35:13;;;;;;;0.10;0.10;;;;;;;;;;2217560;26;20008;-60
2024/04/15 03:36:33;;;;;;;0.20;0.20;;;;;;;;;;2216602;26;20111;-60
2024/04/15 03:37:51;;;;;;;0.10;0.10;;;;;;;;;;2221068;26;20008;-60
2024/04/15 03:39:10;;;;;;;0.20;0.20;;;;;;;;;;2221057;26;20020;-60
2024/04/15 03:40:30;;;;;;;0.10;0.10;;;;;;;;;;2216432;26;22447;-60
2024/04/15 03:41:48;;;;;;;0.77;0.20;;;;;;;;;;2217021;26;20003;-60
2024/04/15 03:43:08;;;;;;;0.20;0.20;;;;;;;;;;2217858;26;20035;-61
2024/04/15 03:44:27;;;;;;;0.85;0.13;;;;;;;;;;2221927;26;20012;-60
2024/04/15 03:45:46;;;;;;;0.10;0.10;;;;;;;;;;2219960;26;20048;-63
2024/04/15 03:47:05;;;;;;;0.20;0.20;;;;;;;;;;2217953;26;20012;-61
2024/04/15 03:48:24;;;;;;;0.20;0.20;;;;;;;;;;2220487;26;20015;-61
2024/04/15 03:49:43;;;;;;;0.55;0.30;;;;;;;;;;2218303;26;20352;-62
2024/04/15 03:51:03;;;;;;;0.20;0.20;;;;;;;;;;2219991;26;20008;-61
2024/04/15 03:52:22;;;;;;;0.38;0.38;;;;;;;;;;2216380;26;20012;-60
2024/04/15 03:53:41;;;;;;;0.32;0.22;;;;;;;;;;2219062;26;20015;-61
2024/04/15 03:55:00;;;;;;;0.20;0.20;;;;;;;;;;2217239;26;20011;-60
2024/04/15 03:56:19;;;;;;;0.10;0.10;;;;;;;;;;2216654;26;19997;-60
2024/04/15 03:57:38;;;;;;;0.45;0.10;;;;;;;;;;2217560;26;20720;-61
2024/04/15 03:58:57;;;;;;;0.15;0.15;;;;;;;;;;2220622;26;20019;-61
2024/04/15 04:00:16;;;;;;;0.10;0.10;;;;;;;;;;2218035;26;20649;-61
2024/04/15 04:01:35;;;;;;;0.10;0.10;;;;;;;;;;2216546;26;20004;-61
2024/04/15 04:02:54;;;;;;;0.10;0.10;;;;;;;;;;2218226;26;21358;-61
2024/04/15 04:04:15;;;;;;;0.20;0.20;;;;;;;;;;2219883;26;20418;-61
2024/04/15 04:05:34;;;;;;;0.20;0.20;;;;;;;;;;2221576;26;20022;-61
2024/04/15 04:06:53;;;;;;;0.10;0.10;;;;;;;;;;2234843;26;20072;-61
2024/04/15 04:08:12;;;;;;;0.22;0.22;;;;;;;;;;2225132;26;20408;-61
2024/04/15 04:09:31;;;;;;;0.20;0.20;;;;;;;;;;2221626;26;20015;-61
2024/04/15 04:10:50;;;;;;;0.10;0.10;;;;;;;;;;2223230;26;20434;-61
2024/04/15 04:12:09;;;;;;;0.82;0.10;;;;;;;;;;2221231;26;20007;-61
2024/04/15 04:13:28;;;;;;;0.30;0.30;;;;;;;;;;2225739;26;20660;-62
2024/04/15 04:14:47;;;;;;;0.30;0.30;;;;;;;;;;2221033;26;20007;-61
2024/04/15 04:16:10;;;;;;;0.35;0.30;;;;;;;;;;2221448;26;20537;-61
2024/04/15 04:17:29;;;;;;;0.20;0.20;;;;;;;;;;2222489;26;20361;-60
2024/04/15 04:18:49;;;;;;;0.40;0.40;;;;;;;;;;2223013;26;20623;-61
2024/04/15 04:20:08;;;;;;;0.20;0.20;;;;;;;;;;2221924;26;20041;-61
2024/04/15 04:21:27;;;;;;;1.77;0.40;;;;;;;;;;2223106;26;20360;-60
2024/04/15 04:22:46;;;;;;;0.22;0.22;;;;;;;;;;2221475;26;20019;-61
2024/04/15 04:24:05;;;;;;;1.05;0.88;;;;;;;;;;2223447;26;20015;-61
2024/04/15 04:25:25;;;;;;;0.60;0.40;;;;;;;;;;2221579;26;20019;-61
2024/04/15 04:26:44;;;;;;;0.30;0.30;;;;;;;;;;2219084;26;20804;-61
2024/04/15 04:28:04;;;;;;;1.30;0.40;;;;;;;;;;2236582;26;19999;-60
2024/04/15 04:29:22;;;;;;;1.85;0.40;;;;;;;;;;2232845;26;20015;-60
2024/04/15 04:30:41;;;;;;;2.05;0.50;;;;;;;;;;2227635;26;20039;-60
2024/04/15 04:32:00;;;;;;;0.20;0.20;;;;;;;;;;2231516;26;20445;-60
2024/04/15 04:33:20;;;;;;;0.20;0.20;;;;;;;;;;2231218;26;20012;-61
2024/04/15 04:34:39;;;;;;;1.63;0.50;;;;;;;;;;2226904;26;20617;-61
2024/04/15 04:35:58;;;;;;;0.30;0.30;;;;;;;;;;2229635;26;20012;-59
2024/04/15 04:37:17;;;;;;;0.40;0.40;;;;;;;;;;2226606;26;20075;-61
2024/04/15 04:38:36;;;;;;;0.35;0.35;;;;;;;;;;2230144;26;20011;-63
2024/04/15 04:39:55;;;;;;;0.20;0.20;;;;;;;;;;2228698;26;20016;-62
2024/04/15 04:41:14;;;;;;;0.90;0.45;;;;;;;;;;2228846;26;20007;-62
2024/04/15 04:42:33;;;;;;;0.45;0.43;;;;;;;;;;2229520;26;20326;-61
2024/04/15 04:43:53;;;;;;;0.40;0.40;;;;;;;;;;2229950;26;20020;-61
2024/04/15 04:45:12;;;;;;;0.30;0.30;;;;;;;;;;2231762;26;20734;-61
2024/04/15 04:46:31;;;;;;;0.47;0.47;;;;;;;;;;2230178;26;20012;-61
2024/04/15 04:47:51;;;;;;;0.60;0.50;;;;;;;;;;2230574;26;20020;-61
2024/04/15 04:49:12;;;;;;;1.75;0.30;;;;;;;;;;2228132;26;20047;-61
2024/04/15 04:50:31;;;;;;;0.98;0.55;;;;;;;;;;2226955;26;20361;-60
2024/04/15 04:51:51;;;;;;;0.65;0.50;;;;;;;;;;2228522;26;20354;-60
2024/04/15 04:53:10;;;;;;;0.47;0.40;;;;;;;;;;2228609;26;20020;-61
2024/04/15 04:54:29;;;;;;;0.70;0.50;;;;;;;;;;2230851;26;20012;-61
2024/04/15 04:55:48;;;;;;;0.47;0.47;;;;;;;;;;2226675;26;20478;-61
2024/04/15 04:57:08;;;;;;;0.50;0.50;;;;;;;;;;2229054;26;20019;-61
2024/04/15 04:58:27;;;;;;;1.02;0.60;;;;;;;;;;2224239;26;20032;-61
2024/04/15 04:59:46;;;;;;;1.60;0.70;;;;;;;;;;2228100;26;20008;-62
2024/04/15 05:01:15;;;;;;;1.15;0.88;;;;;;;;;;2229900;26;20028;-61
2024/04/15 05:02:34;;;;;;;0.50;0.50;;;;;;;;;;2229217;26;20000;-61
2024/04/15 05:03:53;;;;;;;0.70;0.70;;;;;;;;;;2229798;26;20019;-61
2024/04/15 05:05:12;;;;;;;0.50;0.50;;;;;;;;;;2228277;26;20047;-61
2024/04/15 05:06:31;;;;;;;1.00;0.60;;;;;;;;;;2229024;26;20445;-61
2024/04/15 05:07:50;;;;;;;0.73;0.60;;;;;;;;;;2229744;26;20035;-60
2024/04/15 05:09:09;;;;;;;0.50;0.50;;;;;;;;;;2233236;26;20015;-61
2024/04/15 05:10:28;;;;;;;1.95;0.85;;;;;;;;;;2227516;26;20020;-61
2024/04/15 05:11:47;;;;;;;3.53;1.00;;;;;;;;;;2231972;26;20019;-61
2024/04/15 05:13:06;;;;;;;0.70;0.60;;;;;;;;;;2230008;26;20003;-61
2024/04/15 05:14:25;;;;;;;3.42;0.77;;;;;;;;;;2229024;26;20461;-61
2024/04/15 05:15:44;;;;;;;0.98;0.80;;;;;;;;;;2228933;26;20008;-61
2024/04/15 05:17:05;;;;;;;0.77;0.77;;;;;;;;;;2228982;26;20004;-61
2024/04/15 05:18:24;;;;;;;0.70;0.70;;;;;;;;;;2229717;26;20024;-61
2024/04/15 05:19:43;;;;;;;0.60;0.60;;;;;;;;;;2230501;26;20020;-62
2024/04/15 05:21:03;;;;;;;0.80;0.80;;;;;;;;;;2227476;26;20008;-61
2024/04/15 05:22:22;;;;;;;2.10;0.65;;;;;;;;;;2229298;26;20008;-61
2024/04/15 05:23:42;;;;;;;2.40;0.88;;;;;;;;;;2230548;26;20009;-61
2024/04/15 05:25:01;;;;;;;2.45;0.50;;;;;;;;;;2230743;26;20035;-61
2024/04/15 05:26:20;;;;;;;0.70;0.60;;;;;;;;;;2231190;26;20481;-61
2024/04/15 05:27:39;;;;;;;1.65;0.73;;;;;;;;;;2231313;26;20489;-62
2024/04/15 05:28:58;;;;;;;2.05;0.70;;;;;;;;;;2224726;26;20007;-62
2024/04/15 05:30:17;;;;;;;0.50;0.50;;;;;;;;;;2225711;26;20108;-62
2024/04/15 05:31:36;;;;;;;0.75;0.75;;;;;;;;;;2226821;26;20485;-61
2024/04/15 05:32:55;;;;;;;2.08;0.60;;;;;;;;;;2229282;26;20470;-60
2024/04/15 05:34:14;;;;;;;2.58;0.98;;;;;;;;;;2227943;26;20007;-61
2024/04/15 05:35:33;;;;;;;2.55;0.70;;;;;;;;;;2229115;26;20015;-60
2024/04/15 05:36:52;;;;;;;1.67;0.70;;;;;;;;;;2230034;26;20004;-61
2024/04/15 05:38:11;;;;;;;1.38;0.70;;;;;;;;;;2228508;26;20012;-59
2024/04/15 05:39:31;;;;;;;0.63;0.60;;;;;;;;;;2227639;26;20004;-61
2024/04/15 05:40:50;;;;;;;0.70;0.63;;;;;;;;;;2227869;26;20012;-61
2024/04/15 05:42:09;;;;;;;0.50;0.50;;;;;;;;;;2228577;26;20067;-61
2024/04/15 05:43:28;;;;;;;0.63;0.60;;;;;;;;;;2230293;26;20016;-61
2024/04/15 05:44:47;;;;;;;1.17;0.60;;;;;;;;;;2229722;26;20024;-61
2024/04/15 05:46:06;;;;;;;1.35;0.50;;;;;;;;;;2229323;26;20015;-62
2024/04/15 05:47:25;;;;;;;1.65;0.40;;;;;;;;;;2229623;26;20008;-61
2024/04/15 05:48:44;;;;;;;1.85;0.40;;;;;;;;;;2226937;26;20023;-62
2024/04/15 05:50:03;;;;;;;0.68;0.50;;;;;;;;;;2227020;26;20469;-61
2024/04/15 05:51:22;;;;;;;0.40;0.40;;;;;;;;;;2227589;26;20020;-61
2024/04/15 05:52:41;;;;;;;2.22;0.68;;;;;;;;;;2223389;26;20011;-62
2024/04/15 05:54:00;;;;;;;0.90;0.63;;;;;;;;;;2220996;26;20353;-62
2024/04/15 05:55:19;;;;;;;0.50;0.38;;;;;;;;;;2221650;26;20047;-65
2024/04/15 05:56:38;;;;;;;3.05;0.60;;;;;;;;;;2220944;26;20008;-62
2024/04/15 05:57:57;;;;;;;0.90;0.60;;;;;;;;;;2222950;26;20329;-61
2024/04/15 05:59:16;;;;;;;0.77;0.50;;;;;;;;;;2222306;26;20072;-62
2024/04/15 06:00:36;;;;;;;3.30;0.60;;;;;;;;;;2221563;26;20301;-62
2024/04/15 06:01:55;;;;;;;0.65;0.50;;;;;;;;;;2222636;26;20007;-62
2024/04/15 06:03:14;;;;;;;1.45;0.65;;;;;;;;;;2222832;26;20015;-64
2024/04/15 06:04:35;;;;;;;0.60;0.60;;;;;;;;;;2222968;26;20465;-63
2024/04/15 06:05:54;;;;;;;1.35;0.70;;;;;;;;;;2223709;26;20003;-63
2024/04/15 06:07:13;;;;;;;0.93;0.40;;;;;;;;;;2223018;26;20004;-63
2024/04/15 06:08:32;;;;;;;1.95;0.93;;;;;;;;;;2220730;26;20004;-63
2024/04/15 06:09:51;;;;;;;1.25;0.73;;;;;;;;;;2222217;26;20008;-62
2024/04/15 06:11:10;;;;;;;2.92;0.50;;;;;;;;;;2221907;26;20003;-62
2024/04/15 06:12:29;;;;;;;0.43;0.43;;;;;;;;;;2221846;26;20011;-62
2024/04/15 06:13:48;;;;;;;0.55;0.55;;;;;;;;;;2223246;26;20756;-62
2024/04/15 06:15:07;;;;;;;1.05;0.50;;;;;;;;;;2221772;26;20011;-62
2024/04/15 06:16:26;;;;;;;0.70;0.70;;;;;;;;;;2235588;26;19999;-61
2024/04/15 06:17:45;;;;;;;1.40;0.75;;;;;;;;;;2220962;26;20040;-62
2024/04/15 06:19:04;;;;;;;0.63;0.50;;;;;;;;;;2221815;26;20016;-62
2024/04/15 06:20:23;;;;;;;1.27;0.65;;;;;;;;;;2223318;26;20128;-62
2024/04/15 06:21:42;;;;;;;0.50;0.43;;;;;;;;;;2221905;26;20011;-62
2024/04/15 06:23:02;;;;;;;0.45;0.40;;;;;;;;;;2221070;26;20654;-61
2024/04/15 06:24:21;;;;;;;1.30;0.60;;;;;;;;;;2222496;26;20464;-62
2024/04/15 06:25:40;;;;;;;0.98;0.75;;;;;;;;;;2216886;26;20007;-62
2024/04/15 06:26:59;;;;;;;3.40;0.77;;;;;;;;;;2222419;26;20028;-62
2024/04/15 06:28:18;;;;;;;0.65;0.50;;;;;;;;;;2221893;26;21456;-62
2024/04/15 06:29:37;;;;;;;1.77;0.40;;;;;;;;;;2222003;26;20023;-62
2024/04/15 06:30:57;;;;;;;0.68;0.38;;;;;;;;;;2222144;26;20012;-63
2024/04/15 06:32:16;;;;;;;2.10;0.60;;;;;;;;;;2219839;26;20023;-62
2024/04/15 06:33:35;;;;;;;0.57;0.47;;;;;;;;;;2222650;26;20020;-62
2024/04/15 06:34:54;;;;;;;0.43;0.43;;;;;;;;;;2222420;26;20067;-63
2024/04/15 06:36:13;;;;;;;1.30;1.20;;;;;;;;;;2220421;26;20007;-62
2024/04/15 06:37:31;;;;;;;0.93;0.50;;;;;;;;;;2220869;26;20008;-62
2024/04/15 06:38:50;;;;;;;2.45;0.57;;;;;;;;;;2222254;26;20008;-62
2024/04/15 06:40:10;;;;;;;0.40;0.40;;;;;;;;;;2221257;26;19997;-63
2024/04/15 06:41:29;;;;;;;0.50;0.30;;;;;;;;;;2222050;26;20020;-62
2024/04/15 06:42:48;;;;;;;0.40;0.30;;;;;;;;;;2219037;26;20373;-62
2024/04/15 06:44:07;;;;;;;2.33;0.60;;;;;;;;;;2223942;26;20007;-63
2024/04/15 06:45:26;;;;;;;1.90;1.80;;;;;;;;;;2222721;26;20007;-62
2024/04/15 06:46:45;;;;;;;0.60;0.60;;;;;;;;;;2228075;26;19999;-62
2024/04/15 06:48:05;;;;;;;2.13;0.82;;;;;;;;;;2223390;26;20018;-63
2024/04/15 06:49:24;;;;;;;1.25;0.45;;;;;;;;;;2221745;26;20367;-62
2024/04/15 06:50:44;;;;;;;1.40;1.00;;;;;;;;;;2221483;26;20052;-62
2024/04/15 06:52:03;;;;;;;1.95;0.60;;;;;;;;;;2222386;26;20004;-62
2024/04/15 06:53:22;;;;;;;1.38;0.75;;;;;;;;;;2225038;26;19999;-63
2024/04/15 06:54:42;;;;;;;1.50;0.50;;;;;;;;;;2223764;26;20011;-63
2024/04/15 06:56:01;;;;;;;2.78;0.40;;;;;;;;;;2221797;26;20000;-62
2024/04/15 06:57:20;;;;;;;0.93;0.47;;;;;;;;;;2222209;26;20449;-62
2024/04/15 06:58:39;;;;;;;0.55;0.50;;;;;;;;;;2222543;26;20024;-62
2024/04/15 06:59:59;;;;;;;0.47;0.40;;;;;;;;;;2221329;26;20366;-62
2024/04/15 07:01:18;;;;;;;0.30;0.30;;;;;;;;;;2222668;26;20000;-63
2024/04/15 07:02:37;;;;;;;1.65;0.65;;;;;;;;;;2223912;26;20008;-62
2024/04/15 07:03:56;;;;;;;1.38;0.50;;;;;;;;;;2224470;26;20003;-62
2024/04/15 07:05:15;;;;;;;1.65;0.45;;;;;;;;;;2222619;26;20031;-62
2024/04/15 07:06:34;;;;;;;0.98;0.40;;;;;;;;;;2221643;26;20055;-62
2024/04/15 07:07:53;;;;;;;0.75;0.63;;;;;;;;;;2223023;26;20007;-63
2024/04/15 07:09:12;;;;;;;2.05;0.50;;;;;;;;;;2223223;26;20028;-62
2024/04/15 07:10:32;;;;;;;0.90;0.65;;;;;;;;;;2222569;26;20015;-62
2024/04/15 07:11:51;;;;;;;2.00;0.65;;;;;;;;;;2224416;26;20047;-63
2024/04/15 07:13:10;;;;;;;1.77;0.75;;;;;;;;;;2222788;26;20792;-63
2024/04/15 07:14:29;;;;;;;0.63;0.43;;;;;;;;;;2225665;26;20007;-62
2024/04/15 07:15:48;;;;;;;1.48;0.77;;;;;;;;;;2220974;26;20004;-62
2024/04/15 07:17:07;;;;;;;2.38;0.47;;;;;;;;;;2221727;26;20007;-63
2024/04/15 07:18:27;;;;;;;0.47;0.47;;;;;;;;;;2222285;26;20711;-63
2024/04/15 07:19:47;;;;;;;0.30;0.30;;;;;;;;;;2222020;26;20027;-62
2024/04/15 07:21:06;;;;;;;0.38;0.30;;;;;;;;;;2222274;26;20011;-62
2024/04/15 07:22:25;;;;;;;1.38;0.77;;;;;;;;;;2224646;26;22373;-65
2024/04/15 07:23:45;;;;;;;2.92;0.50;;;;;;;;;;2224094;26;20016;-62
2024/04/15 07:25:07;;;;;;;0.43;0.43;;;;;;;;;;2223118;26;20000;-63
2024/04/15 07:26:26;;;;;;;0.47;0.47;;;;;;;;;;2223013;26;20020;-63
2024/04/15 07:27:45;;;;;;;1.33;0.40;;;;;;;;;;2222261;26;20011;-63
2024/04/15 07:29:05;;;;;;;1.85;0.85;;;;;;;;;;2223360;26;20004;-63
2024/04/15 07:30:24;;;;;;;1.13;0.40;;;;;;;;;;2221651;26;20038;-63
2024/04/15 07:31:43;;;;;;;0.70;0.47;;;;;;;;;;2224713;26;21634;-62
2024/04/15 07:33:03;;;;;;;1.63;0.50;;;;;;;;;;2224050;26;20496;-63
2024/04/15 07:34:22;;;;;;;0.77;0.50;;;;;;;;;;2222898;26;20007;-62
2024/04/15 07:35:41;;;;;;;1.77;0.30;;;;;;;;;;2224283;26;20040;-62
2024/04/15 07:37:01;;;;;;;1.08;0.57;;;;;;;;;;2236516;26;20631;-62
2024/04/15 07:38:20;;;;;;;0.60;0.60;;;;;;;;;;2230122;26;20367;-62
2024/04/15 07:39:39;;;;;;;0.40;0.40;;;;;;;;;;2222205;26;20020;-62
2024/04/15 07:40:59;;;;;;;0.70;0.50;;;;;;;;;;2220973;26;20052;-62
2024/04/15 07:42:18;;;;;;;2.45;0.40;;;;;;;;;;2223354;26;20472;-65
2024/04/15 07:43:36;;;;;;;1.17;0.32;;;;;;;;;;2223917;26;20011;-62
2024/04/15 07:44:55;;;;;;;0.38;0.38;;;;;;;;;;2222787;26;20004;-62
2024/04/15 07:46:14;;;;;;;4.10;0.47;;;;;;;;;;2220835;26;20007;-62
2024/04/15 07:47:33;;;;;;;2.55;0.45;;;;;;;;;;2222562;26;20020;-62
2024/04/15 07:48:52;;;;;;;1.20;0.38;;;;;;;;;;2224425;26;20019;-62
2024/04/15 07:50:11;;;;;;;2.10;0.90;;;;;;;;;;2221842;26;20004;-62
2024/04/15 07:51:30;;;;;;;0.85;0.43;;;;;;;;;;2224529;26;20468;-62
2024/04/15 07:52:50;;;;;;;0.77;0.40;;;;;;;;;;2227993;26;20374;-62
2024/04/15 07:54:09;;;;;;;2.15;0.52;;;;;;;;;;2223302;26;20015;-62
2024/04/15 07:55:28;;;;;;;0.80;0.50;;;;;;;;;;2222250;26;22458;-63